Aviation Digital Data Service (ADDS)

Output produced by TAFs form (1139 UTC 23 February 2017)
found at http://aviationweather.gov/adds/tafs/
 
KTUS 231120Z 2312/2412 31011KT P6SM SKC 
     FM240200 28007KT P6SM SKC